Wally — WDG9908 — position and weather

sailwx.info

Track history (hours):
 
Tides and Currents Weather Stations Pressure Air Temp Water Temp Dewpoint Dewpoint Depression Visibility Wind Speed Wind Dir Waves Ship Positions

Wally

Owner: Dunn, Michael G, Port Orchard, WA. More information available from US FCC via Universal Licensing System and Coast Guard Vessel Documentation Center.

Last reported at 2017-Oct-17 18:13 UTC. Time now 2017-Nov-21 10:20 UTC.
Position N 47°33' W 122°37'.
Warning: this ship's position is 34 days out of date.

Length 12 m.

Type: Pleasure craft. MMSI: 367592410.

Date/timePositionNaut miles runAvg speedWind from/ knotsBaromVisibWave heightAir tempDewpointWater temp
2017-Oct-17 18:13N 47°33' W 122°37'2 6.4
2017-Oct-17 17:56N 47°35' W 122°36'4 6.3
2017-Oct-17 17:21N 47°38' W 122°35'5 0.2
2017-Oct-16 19:07N 47°43' W 122°33'1 7.0
2017-Oct-16 19:00N 47°44' W 122°32'3 6.7
2017-Oct-16 18:28N 47°46' W 122°28'3 6.9
2017-Oct-16 18:00N 47°49' W 122°26'3 7.0
2017-Oct-16 17:30N 47°52' W 122°24'4 7.2
2017-Oct-16 17:00N 47°55' W 122°22'4 6.6
2017-Oct-16 16:23N 47°59' W 122°21'38 0.8
2017-Oct-14 16:10N 48°36' W 122°38'2 7.0
2017-Oct-14 15:50N 48°38' W 122°40'3 7.4
2017-Oct-14 15:24N 48°40' W 122°44'11 0.2
2017-Oct-12 18:20N 48°41' W 122°60'7 6.6
2017-Oct-12 17:14N 48°33' W 123°00'1 3.7
2017-Oct-12 16:54N 48°32' W 123°01'0 0.0
2017-Oct-12 16:30N 48°32' W 123°01'0 0.0
2017-Oct-12 16:00N 48°32' W 123°01'0 0.0
2017-Oct-12 15:27N 48°32' W 123°01'0 0.0
2017-Oct-12 15:00N 48°32' W 123°01'0 0.0
2017-Oct-12 14:30N 48°32' W 123°01'0 0.0
2017-Oct-12 13:57N 48°32' W 123°01'0 0.0
2017-Oct-12 13:30N 48°32' W 123°01'0 0.0
2017-Oct-12 13:00N 48°32' W 123°01'0 0.0
2017-Oct-12 12:30N 48°32' W 123°01'0 0.0
2017-Oct-12 11:51N 48°32' W 123°01'0 0.0
2017-Oct-12 11:30N 48°32' W 123°01'0 0.0
2017-Oct-12 11:00N 48°32' W 123°01'0 0.0
2017-Oct-12 10:27N 48°32' W 123°01'0 0.0
2017-Oct-12 09:57N 48°32' W 123°01'0 0.0
2017-Oct-12 09:30N 48°32' W 123°01'0 0.0
2017-Oct-12 09:00N 48°32' W 123°01'0 0.0
2017-Oct-12 08:30N 48°32' W 123°01'0 0.0
2017-Oct-12 08:00N 48°32' W 123°01'0 0.0
2017-Oct-12 07:30N 48°32' W 123°01'0 0.0
2017-Oct-12 06:57N 48°32' W 123°01'0 0.0
2017-Oct-12 06:30N 48°32' W 123°01'0 0.0
2017-Oct-12 06:00N 48°32' W 123°01'0 0.0
2017-Oct-12 05:30N 48°32' W 123°01'0 0.0
2017-Oct-12 05:00N 48°32' W 123°01'0 0.0
2017-Oct-12 04:30N 48°32' W 123°01'0 0.0
2017-Oct-12 03:57N 48°32' W 123°01'0 0.0
2017-Oct-12 03:30N 48°32' W 123°01'0 0.0
2017-Oct-12 02:57N 48°32' W 123°01'0 0.0
2017-Oct-12 02:30N 48°32' W 123°01'0 0.0
2017-Oct-12 02:00N 48°32' W 123°01'0 0.0
2017-Oct-12 01:30N 48°32' W 123°01'0 0.0
2017-Oct-12 01:00N 48°32' W 123°01'0 0.0
2017-Oct-12 00:30N 48°32' W 123°01'0 0.0
2017-Oct-12 00:00N 48°32' W 123°01'0 0.0
2017-Oct-11 23:30N 48°32' W 123°01'0 0.0
2017-Oct-11 23:00N 48°32' W 123°01'0 0.0
2017-Oct-11 22:27N 48°32' W 123°01'0 0.0
2017-Oct-11 22:00N 48°32' W 123°01'0 0.0
2017-Oct-11 21:27N 48°32' W 123°01'0 0.0
2017-Oct-11 21:00N 48°32' W 123°01'0 0.0
2017-Oct-11 20:30N 48°32' W 123°01'0 0.0
2017-Oct-11 19:57N 48°32' W 123°01'0 0.0
2017-Oct-11 19:30N 48°32' W 123°01'0 0.0
2017-Oct-11 19:00N 48°32' W 123°01'0 0.0
2017-Oct-11 18:30N 48°32' W 123°01'0 0.1
2017-Oct-11 18:00N 48°32' W 123°01'0 0.1
2017-Oct-11 17:30N 48°32' W 123°01'0 0.0
2017-Oct-11 17:00N 48°32' W 123°01'0 0.0
2017-Oct-11 00:00N 48°32' W 123°01'0 0.0
2017-Oct-10 23:30N 48°32' W 123°01'0 0.0
2017-Oct-10 22:57N 48°32' W 123°01'0 0.3
2017-Oct-10 22:30N 48°32' W 123°01'2 4.8
2017-Oct-10 22:00N 48°31' W 122°57'3 5.6
2017-Oct-10 21:30N 48°29' W 122°57'2 4.4
2017-Oct-10 20:58N 48°26' W 122°57'35 6.3
2017-Oct-10 15:18N 47°55' W 122°32'2 6.8
2017-Oct-10 15:00N 47°53' W 122°30'6 5.6
2017-Oct-10 14:00N 47°48' W 122°30'0 0.1
2017-Oct-10 12:25N 47°48' W 122°30'0 0.0
2017-Oct-10 11:49N 47°48' W 122°30'0 0.0
2017-Oct-10 10:43N 47°48' W 122°30'0 0.0
2017-Oct-10 10:25N 47°48' W 122°30'0 0.0
2017-Oct-10 09:55N 47°48' W 122°30'0 0.0
2017-Oct-10 09:19N 47°48' W 122°30'0 0.0
2017-Oct-10 07:25N 47°48' W 122°30'0 0.0
2017-Oct-10 02:09N 47°48' W 122°30'1 3.7
2017-Oct-10 02:00N 47°47' W 122°29'3 5.0
2017-Oct-10 01:20N 47°44' W 122°30'9 5.7
2017-Oct-09 23:49N 47°36' W 122°35'2 6.1
2017-Oct-09 23:30N 47°34' W 122°36'  
Track history (hours):
 
Tides and Currents Weather Stations Pressure Air Temp Water Temp Dewpoint Dewpoint Depression Visibility Wind Speed Wind Dir Waves Ship Positions

Wally

Owner: Dunn, Michael G, Port Orchard, WA. More information available from US FCC via Universal Licensing System and Coast Guard Vessel Documentation Center.

Last reported at 2017-Oct-17 18:13 UTC. Time now 2017-Nov-21 10:20 UTC.
Position N 47°33' W 122°37'.
Warning: this ship's position is 34 days out of date.

Length 12 m.

Type: Pleasure craft. MMSI: 367592410.

Date/timePositionNaut miles runAvg speedWind from/ knotsBaromVisibWave heightAir tempDewpointWater temp
2017-Oct-17 18:13N 47°33' W 122°37'2 6.4
2017-Oct-17 17:56N 47°35' W 122°36'4 6.3
2017-Oct-17 17:21N 47°38' W 122°35'5 0.2
2017-Oct-16 19:07N 47°43' W 122°33'1 7.0
2017-Oct-16 19:00N 47°44' W 122°32'3 6.7
2017-Oct-16 18:28N 47°46' W 122°28'3 6.9
2017-Oct-16 18:00N 47°49' W 122°26'3 7.0
2017-Oct-16 17:30N 47°52' W 122°24'4 7.2
2017-Oct-16 17:00N 47°55' W 122°22'4 6.6
2017-Oct-16 16:23N 47°59' W 122°21'38 0.8
2017-Oct-14 16:10N 48°36' W 122°38'2 7.0
2017-Oct-14 15:50N 48°38' W 122°40'3 7.4
2017-Oct-14 15:24N 48°40' W 122°44'11 0.2
2017-Oct-12 18:20N 48°41' W 122°60'7 6.6
2017-Oct-12 17:14N 48°33' W 123°00'1 3.7
2017-Oct-12 16:54N 48°32' W 123°01'0 0.0
2017-Oct-12 16:30N 48°32' W 123°01'0 0.0
2017-Oct-12 16:00N 48°32' W 123°01'0 0.0
2017-Oct-12 15:27N 48°32' W 123°01'0 0.0
2017-Oct-12 15:00N 48°32' W 123°01'0 0.0
2017-Oct-12 14:30N 48°32' W 123°01'0 0.0
2017-Oct-12 13:57N 48°32' W 123°01'0 0.0
2017-Oct-12 13:30N 48°32' W 123°01'0 0.0
2017-Oct-12 13:00N 48°32' W 123°01'0 0.0
2017-Oct-12 12:30N 48°32' W 123°01'0 0.0
2017-Oct-12 11:51N 48°32' W 123°01'0 0.0
2017-Oct-12 11:30N 48°32' W 123°01'0 0.0
2017-Oct-12 11:00N 48°32' W 123°01'0 0.0
2017-Oct-12 10:27N 48°32' W 123°01'0 0.0
2017-Oct-12 09:57N 48°32' W 123°01'0 0.0
2017-Oct-12 09:30N 48°32' W 123°01'0 0.0
2017-Oct-12 09:00N 48°32' W 123°01'0 0.0
2017-Oct-12 08:30N 48°32' W 123°01'0 0.0
2017-Oct-12 08:00N 48°32' W 123°01'0 0.0
2017-Oct-12 07:30N 48°32' W 123°01'0 0.0
2017-Oct-12 06:57N 48°32' W 123°01'0 0.0
2017-Oct-12 06:30N 48°32' W 123°01'0 0.0
2017-Oct-12 06:00N 48°32' W 123°01'0 0.0
2017-Oct-12 05:30N 48°32' W 123°01'0 0.0
2017-Oct-12 05:00N 48°32' W 123°01'0 0.0
2017-Oct-12 04:30N 48°32' W 123°01'0 0.0
2017-Oct-12 03:57N 48°32' W 123°01'0 0.0
2017-Oct-12 03:30N 48°32' W 123°01'0 0.0
2017-Oct-12 02:57N 48°32' W 123°01'0 0.0
2017-Oct-12 02:30N 48°32' W 123°01'0 0.0
2017-Oct-12 02:00N 48°32' W 123°01'0 0.0
2017-Oct-12 01:30N 48°32' W 123°01'0 0.0
2017-Oct-12 01:00N 48°32' W 123°01'0 0.0
2017-Oct-12 00:30N 48°32' W 123°01'0 0.0
2017-Oct-12 00:00N 48°32' W 123°01'0 0.0
2017-Oct-11 23:30N 48°32' W 123°01'0 0.0
2017-Oct-11 23:00N 48°32' W 123°01'0 0.0
2017-Oct-11 22:27N 48°32' W 123°01'0 0.0
2017-Oct-11 22:00N 48°32' W 123°01'0 0.0
2017-Oct-11 21:27N 48°32' W 123°01'0 0.0
2017-Oct-11 21:00N 48°32' W 123°01'0 0.0
2017-Oct-11 20:30N 48°32' W 123°01'0 0.0
2017-Oct-11 19:57N 48°32' W 123°01'0 0.0
2017-Oct-11 19:30N 48°32' W 123°01'0 0.0
2017-Oct-11 19:00N 48°32' W 123°01'0 0.0
2017-Oct-11 18:30N 48°32' W 123°01'0 0.1
2017-Oct-11 18:00N 48°32' W 123°01'0 0.1
2017-Oct-11 17:30N 48°32' W 123°01'0 0.0
2017-Oct-11 17:00N 48°32' W 123°01'0 0.0
2017-Oct-11 00:00N 48°32' W 123°01'0 0.0
2017-Oct-10 23:30N 48°32' W 123°01'0 0.0
2017-Oct-10 22:57N 48°32' W 123°01'0 0.3
2017-Oct-10 22:30N 48°32' W 123°01'2 4.8
2017-Oct-10 22:00N 48°31' W 122°57'3 5.6
2017-Oct-10 21:30N 48°29' W 122°57'2 4.4
2017-Oct-10 20:58N 48°26' W 122°57'35 6.3
2017-Oct-10 15:18N 47°55' W 122°32'2 6.8
2017-Oct-10 15:00N 47°53' W 122°30'6 5.6
2017-Oct-10 14:00N 47°48' W 122°30'0 0.1
2017-Oct-10 12:25N 47°48' W 122°30'0 0.0
2017-Oct-10 11:49N 47°48' W 122°30'0 0.0
2017-Oct-10 10:43N 47°48' W 122°30'0 0.0
2017-Oct-10 10:25N 47°48' W 122°30'0 0.0
2017-Oct-10 09:55N 47°48' W 122°30'0 0.0
2017-Oct-10 09:19N 47°48' W 122°30'0 0.0
2017-Oct-10 07:25N 47°48' W 122°30'0 0.0
2017-Oct-10 02:09N 47°48' W 122°30'1 3.7
2017-Oct-10 02:00N 47°47' W 122°29'3 5.0
2017-Oct-10 01:20N 47°44' W 122°30'9 5.7
2017-Oct-09 23:49N 47°36' W 122°35'2 6.1
2017-Oct-09 23:30N 47°34' W 122°36'  

Dump ship's entire track history